Positano — IJZJ — position and weather

sailwx.info

Track history (hours):
 
Tides and Currents Weather Stations Pressure Air Temp Water Temp Dewpoint Dewpoint Depression Visibility Wind Speed Wind Dir Waves Ship Positions

Positano

Last reported at 2017-Oct-19 09:15 UTC. Time now 2017-Oct-19 15:10 UTC.
Position N 40°38' E 014°20'.

Length 12 m.

MMSI: 247208300.

Date/timePositionNaut miles runAvg speedWind from/ knotsBaromVisibWave heightAir tempDewpointWater temp
2017-Oct-19 09:15N 40°38' E 014°20'2 7.0
2017-Oct-19 09:00N 40°38' E 014°23'1 2.1
2017-Oct-19 08:30N 40°38' E 014°21'5 0.1
2017-Oct-17 16:17N 40°34' E 014°17'2 5.8
2017-Oct-17 16:00N 40°33' E 014°15'3 5.9
2017-Oct-17 15:30N 40°33' E 014°12'3 1.9
2017-Oct-17 13:48N 40°33' E 014°16'0 0.5
2017-Oct-17 13:17N 40°33' E 014°16'0 0.0
2017-Oct-17 13:00N 40°33' E 014°16'0 0.0
2017-Oct-17 12:30N 40°33' E 014°16'5 1.6
2017-Oct-17 09:20N 40°37' E 014°20'2 6.3
2017-Oct-17 09:00N 40°38' E 014°23'0 0.3
2017-Oct-17 08:30N 40°38' E 014°23'2 0.1
2017-Oct-16 09:20N 40°37' E 014°20'2 6.2
2017-Oct-16 09:00N 40°38' E 014°23'0 0.5
2017-Oct-16 08:30N 40°38' E 014°23'2 0.1
2017-Oct-15 14:31N 40°37' E 014°25'3 2.9
2017-Oct-15 13:27N 40°37' E 014°29'0 0.3
2017-Oct-15 12:55N 40°38' E 014°29'0 0.4
2017-Oct-15 12:30N 40°37' E 014°29'3 0.6
2017-Oct-15 08:03N 40°35' E 014°27'1 9.7
2017-Oct-15 08:00N 40°35' E 014°26'5 0.2
2017-Oct-14 09:15N 40°38' E 014°20'2 6.9
2017-Oct-14 09:00N 40°38' E 014°23'1 1.6
2017-Oct-14 08:30N 40°38' E 014°22'2 0.1
2017-Oct-13 09:23N 40°37' E 014°20'2 5.8
2017-Oct-13 09:00N 40°38' E 014°23'2 3.3
2017-Oct-13 08:30N 40°38' E 014°21'6 0.3
2017-Oct-12 10:22N 40°34' E 014°15'1 2.0
2017-Oct-12 10:00N 40°33' E 014°14'6 8.2
2017-Oct-12 09:19N 40°37' E 014°20'2 6.6
2017-Oct-12 09:01N 40°38' E 014°23'2 3.3
2017-Oct-12 08:30N 40°38' E 014°20'6 0.1
2017-Oct-10 07:52N 40°35' E 014°27'3 6.5
2017-Oct-10 07:28N 40°35' E 014°24'2 0.1
2017-Oct-09 14:39N 40°36' E 014°26'  
Track history (hours):
 
Tides and Currents Weather Stations Pressure Air Temp Water Temp Dewpoint Dewpoint Depression Visibility Wind Speed Wind Dir Waves Ship Positions

Positano

Last reported at 2017-Oct-19 09:15 UTC. Time now 2017-Oct-19 15:10 UTC.
Position N 40°38' E 014°20'.

Length 12 m.

MMSI: 247208300.

Date/timePositionNaut miles runAvg speedWind from/ knotsBaromVisibWave heightAir tempDewpointWater temp
2017-Oct-19 09:15N 40°38' E 014°20'2 7.0
2017-Oct-19 09:00N 40°38' E 014°23'1 2.1
2017-Oct-19 08:30N 40°38' E 014°21'5 0.1
2017-Oct-17 16:17N 40°34' E 014°17'2 5.8
2017-Oct-17 16:00N 40°33' E 014°15'3 5.9
2017-Oct-17 15:30N 40°33' E 014°12'3 1.9
2017-Oct-17 13:48N 40°33' E 014°16'0 0.5
2017-Oct-17 13:17N 40°33' E 014°16'0 0.0
2017-Oct-17 13:00N 40°33' E 014°16'0 0.0
2017-Oct-17 12:30N 40°33' E 014°16'5 1.6
2017-Oct-17 09:20N 40°37' E 014°20'2 6.3
2017-Oct-17 09:00N 40°38' E 014°23'0 0.3
2017-Oct-17 08:30N 40°38' E 014°23'2 0.1
2017-Oct-16 09:20N 40°37' E 014°20'2 6.2
2017-Oct-16 09:00N 40°38' E 014°23'0 0.5
2017-Oct-16 08:30N 40°38' E 014°23'2 0.1
2017-Oct-15 14:31N 40°37' E 014°25'3 2.9
2017-Oct-15 13:27N 40°37' E 014°29'0 0.3
2017-Oct-15 12:55N 40°38' E 014°29'0 0.4
2017-Oct-15 12:30N 40°37' E 014°29'3 0.6
2017-Oct-15 08:03N 40°35' E 014°27'1 9.7
2017-Oct-15 08:00N 40°35' E 014°26'5 0.2
2017-Oct-14 09:15N 40°38' E 014°20'2 6.9
2017-Oct-14 09:00N 40°38' E 014°23'1 1.6
2017-Oct-14 08:30N 40°38' E 014°22'2 0.1
2017-Oct-13 09:23N 40°37' E 014°20'2 5.8
2017-Oct-13 09:00N 40°38' E 014°23'2 3.3
2017-Oct-13 08:30N 40°38' E 014°21'6 0.3
2017-Oct-12 10:22N 40°34' E 014°15'1 2.0
2017-Oct-12 10:00N 40°33' E 014°14'6 8.2
2017-Oct-12 09:19N 40°37' E 014°20'2 6.6
2017-Oct-12 09:01N 40°38' E 014°23'2 3.3
2017-Oct-12 08:30N 40°38' E 014°20'6 0.1
2017-Oct-10 07:52N 40°35' E 014°27'3 6.5
2017-Oct-10 07:28N 40°35' E 014°24'2 0.1
2017-Oct-09 14:39N 40°36' E 014°26'  

Dump ship's entire track history